sensor_id;sensor_type;location;lat;lon;timestamp;temperature;humidity
70534;SHT31;58088;51.186;17.130;2024-01-25T00:01:33;9.38;64.61
70534;SHT31;58088;51.186;17.130;2024-01-25T00:03:59;9.34;64.62
70534;SHT31;58088;51.186;17.130;2024-01-25T00:06:25;9.31;64.76
70534;SHT31;58088;51.186;17.130;2024-01-25T00:08:52;9.32;64.77
70534;SHT31;58088;51.186;17.130;2024-01-25T00:11:18;9.31;64.88
70534;SHT31;58088;51.186;17.130;2024-01-25T00:13:44;9.32;64.95
70534;SHT31;58088;51.186;17.130;2024-01-25T00:16:10;9.27;65.24
70534;SHT31;58088;51.186;17.130;2024-01-25T00:18:36;9.27;65.30
70534;SHT31;58088;51.186;17.130;2024-01-25T00:21:03;9.26;65.38
70534;SHT31;58088;51.186;17.130;2024-01-25T00:23:29;9.18;65.72
70534;SHT31;58088;51.186;17.130;2024-01-25T00:25:55;9.14;65.85
70534;SHT31;58088;51.186;17.130;2024-01-25T00:28:24;9.10;65.96
70534;SHT31;58088;51.186;17.130;2024-01-25T00:30:51;9.09;66.02
70534;SHT31;58088;51.186;17.130;2024-01-25T00:33:17;9.06;65.96
70534;SHT31;58088;51.186;17.130;2024-01-25T00:35:44;9.02;66.03
70534;SHT31;58088;51.186;17.130;2024-01-25T00:38:11;9.00;66.02
70534;SHT31;58088;51.186;17.130;2024-01-25T00:40:38;9.01;66.00
70534;SHT31;58088;51.186;17.130;2024-01-25T00:43:05;9.01;66.02
70534;SHT31;58088;51.186;17.130;2024-01-25T00:45:32;9.02;66.01
70534;SHT31;58088;51.186;17.130;2024-01-25T00:47:59;9.04;66.02
70534;SHT31;58088;51.186;17.130;2024-01-25T00:50:26;9.08;65.87
70534;SHT31;58088;51.186;17.130;2024-01-25T00:52:52;9.10;65.79
70534;SHT31;58088;51.186;17.130;2024-01-25T00:55:20;9.13;65.66
70534;SHT31;58088;51.186;17.130;2024-01-25T00:57:46;9.12;65.54
70534;SHT31;58088;51.186;17.130;2024-01-25T01:00:13;9.15;65.44
70534;SHT31;58088;51.186;17.130;2024-01-25T01:02:43;9.14;65.23
70534;SHT31;58088;51.186;17.130;2024-01-25T01:05:11;9.17;65.15
70534;SHT31;58088;51.186;17.130;2024-01-25T01:07:38;9.18;64.95
70534;SHT31;58088;51.186;17.130;2024-01-25T01:10:08;9.20;64.67
70534;SHT31;58088;51.186;17.130;2024-01-25T01:12:35;9.24;64.53
70534;SHT31;58088;51.186;17.130;2024-01-25T01:15:02;9.21;64.36
70534;SHT31;58088;51.186;17.130;2024-01-25T01:17:29;9.22;64.23
70534;SHT31;58088;51.186;17.130;2024-01-25T01:19:55;9.20;64.05
70534;SHT31;58088;51.186;17.130;2024-01-25T01:22:21;9.23;64.01
70534;SHT31;58088;51.186;17.130;2024-01-25T01:24:49;9.22;63.82
70534;SHT31;58088;51.186;17.130;2024-01-25T01:27:15;9.25;63.78
70534;SHT31;58088;51.186;17.130;2024-01-25T01:29:42;9.26;63.74
70534;SHT31;58088;51.186;17.130;2024-01-25T01:32:08;9.25;63.59
70534;SHT31;58088;51.186;17.130;2024-01-25T01:34:34;9.29;63.51
70534;SHT31;58088;51.186;17.130;2024-01-25T01:37:00;9.28;63.43
70534;SHT31;58088;51.186;17.130;2024-01-25T01:39:26;9.26;63.29
70534;SHT31;58088;51.186;17.130;2024-01-25T01:41:52;9.27;63.07
70534;SHT31;58088;51.186;17.130;2024-01-25T01:44:19;9.27;62.95
70534;SHT31;58088;51.186;17.130;2024-01-25T01:46:46;9.28;62.87
70534;SHT31;58088;51.186;17.130;2024-01-25T01:49:12;9.30;62.80
70534;SHT31;58088;51.186;17.130;2024-01-25T01:51:40;9.29;62.63
70534;SHT31;58088;51.186;17.130;2024-01-25T01:54:10;9.30;62.40
70534;SHT31;58088;51.186;17.130;2024-01-25T01:56:36;9.32;62.29
70534;SHT31;58088;51.186;17.130;2024-01-25T01:59:06;9.31;62.25
70534;SHT31;58088;51.186;17.130;2024-01-25T02:01:37;9.33;62.20
70534;SHT31;58088;51.186;17.130;2024-01-25T02:04:04;9.33;62.08
70534;SHT31;58088;51.186;17.130;2024-01-25T02:06:31;9.35;61.98
70534;SHT31;58088;51.186;17.130;2024-01-25T02:08:57;9.36;61.65
70534;SHT31;58088;51.186;17.130;2024-01-25T02:11:24;9.35;61.33
70534;SHT31;58088;51.186;17.130;2024-01-25T02:13:51;9.35;61.20
70534;SHT31;58088;51.186;17.130;2024-01-25T02:16:17;9.34;60.91
70534;SHT31;58088;51.186;17.130;2024-01-25T02:18:45;9.36;60.76
70534;SHT31;58088;51.186;17.130;2024-01-25T02:21:13;9.35;60.57
70534;SHT31;58088;51.186;17.130;2024-01-25T02:23:39;9.39;60.52
70534;SHT31;58088;51.186;17.130;2024-01-25T02:26:06;9.39;60.26
70534;SHT31;58088;51.186;17.130;2024-01-25T02:28:32;9.40;60.26
70534;SHT31;58088;51.186;17.130;2024-01-25T02:31:01;9.43;60.22
70534;SHT31;58088;51.186;17.130;2024-01-25T02:33:28;9.43;59.95
70534;SHT31;58088;51.186;17.130;2024-01-25T02:35:54;9.42;59.76
70534;SHT31;58088;51.186;17.130;2024-01-25T02:38:21;9.43;59.64
70534;SHT31;58088;51.186;17.130;2024-01-25T02:40:47;9.47;59.72
70534;SHT31;58088;51.186;17.130;2024-01-25T02:43:13;9.44;59.66
70534;SHT31;58088;51.186;17.130;2024-01-25T02:45:39;9.44;59.69
70534;SHT31;58088;51.186;17.130;2024-01-25T02:48:06;9.44;59.69
70534;SHT31;58088;51.186;17.130;2024-01-25T02:50:32;9.41;59.62
70534;SHT31;58088;51.186;17.130;2024-01-25T02:52:58;9.38;59.54
70534;SHT31;58088;51.186;17.130;2024-01-25T02:55:24;9.40;59.68
70534;SHT31;58088;51.186;17.130;2024-01-25T02:57:51;9.40;59.71
70534;SHT31;58088;51.186;17.130;2024-01-25T03:00:17;9.37;59.62
70534;SHT31;58088;51.186;17.130;2024-01-25T03:03:02;9.38;59.63
70534;SHT31;58088;51.186;17.130;2024-01-25T03:05:28;9.34;59.56
70534;SHT31;58088;51.186;17.130;2024-01-25T03:07:54;9.38;59.60
70534;SHT31;58088;51.186;17.130;2024-01-25T03:10:20;9.39;59.63
70534;SHT31;58088;51.186;17.130;2024-01-25T03:12:47;9.38;59.60
70534;SHT31;58088;51.186;17.130;2024-01-25T03:15:13;9.34;59.60
70534;SHT31;58088;51.186;17.130;2024-01-25T03:17:40;9.37;59.72
70534;SHT31;58088;51.186;17.130;2024-01-25T03:20:06;9.36;59.73
70534;SHT31;58088;51.186;17.130;2024-01-25T03:22:33;9.35;59.78
70534;SHT31;58088;51.186;17.130;2024-01-25T03:24:59;9.34;59.79
70534;SHT31;58088;51.186;17.130;2024-01-25T03:27:25;9.32;59.76
70534;SHT31;58088;51.186;17.130;2024-01-25T03:29:52;9.37;59.79
70534;SHT31;58088;51.186;17.130;2024-01-25T03:32:18;9.37;59.79
70534;SHT31;58088;51.186;17.130;2024-01-25T03:34:44;9.39;59.78
70534;SHT31;58088;51.186;17.130;2024-01-25T03:37:10;9.38;59.74
70534;SHT31;58088;51.186;17.130;2024-01-25T03:39:36;9.39;59.77
70534;SHT31;58088;51.186;17.130;2024-01-25T03:42:02;9.37;59.74
70534;SHT31;58088;51.186;17.130;2024-01-25T03:44:29;9.38;59.68
70534;SHT31;58088;51.186;17.130;2024-01-25T03:46:55;9.41;59.70
70534;SHT31;58088;51.186;17.130;2024-01-25T03:49:21;9.41;59.61
70534;SHT31;58088;51.186;17.130;2024-01-25T03:51:48;9.44;59.60
70534;SHT31;58088;51.186;17.130;2024-01-25T03:54:16;9.46;59.56
70534;SHT31;58088;51.186;17.130;2024-01-25T03:56:42;9.50;59.63
70534;SHT31;58088;51.186;17.130;2024-01-25T03:59:09;9.48;59.53
70534;SHT31;58088;51.186;17.130;2024-01-25T04:01:44;9.47;59.56
70534;SHT31;58088;51.186;17.130;2024-01-25T04:04:10;9.48;59.52
70534;SHT31;58088;51.186;17.130;2024-01-25T04:06:41;9.48;59.45
70534;SHT31;58088;51.186;17.130;2024-01-25T04:09:08;9.50;59.45
70534;SHT31;58088;51.186;17.130;2024-01-25T04:11:36;9.49;59.37
70534;SHT31;58088;51.186;17.130;2024-01-25T04:14:04;9.52;59.42
70534;SHT31;58088;51.186;17.130;2024-01-25T04:16:31;9.51;59.43
70534;SHT31;58088;51.186;17.130;2024-01-25T04:19:00;9.51;59.46
70534;SHT31;58088;51.186;17.130;2024-01-25T04:21:26;9.49;59.51
70534;SHT31;58088;51.186;17.130;2024-01-25T04:23:53;9.47;59.58
70534;SHT31;58088;51.186;17.130;2024-01-25T04:26:20;9.46;59.71
70534;SHT31;58088;51.186;17.130;2024-01-25T04:28:46;9.43;60.00
70534;SHT31;58088;51.186;17.130;2024-01-25T04:31:12;9.42;60.27
70534;SHT31;58088;51.186;17.130;2024-01-25T04:33:38;9.38;61.09
70534;SHT31;58088;51.186;17.130;2024-01-25T04:36:05;9.22;61.98
70534;SHT31;58088;51.186;17.130;2024-01-25T04:38:32;9.18;62.30
70534;SHT31;58088;51.186;17.130;2024-01-25T04:40:58;9.13;62.65
70534;SHT31;58088;51.186;17.130;2024-01-25T04:43:25;9.06;63.23
70534;SHT31;58088;51.186;17.130;2024-01-25T04:45:51;9.03;63.54
70534;SHT31;58088;51.186;17.130;2024-01-25T04:48:17;9.00;63.64
70534;SHT31;58088;51.186;17.130;2024-01-25T04:50:43;8.94;63.75
70534;SHT31;58088;51.186;17.130;2024-01-25T04:53:09;8.90;63.87
70534;SHT31;58088;51.186;17.130;2024-01-25T04:55:36;8.89;63.82
70534;SHT31;58088;51.186;17.130;2024-01-25T04:58:02;8.88;63.88
70534;SHT31;58088;51.186;17.130;2024-01-25T05:00:28;8.85;64.10
70534;SHT31;58088;51.186;17.130;2024-01-25T05:02:55;8.88;64.11
70534;SHT31;58088;51.186;17.130;2024-01-25T05:05:21;8.88;64.10
70534;SHT31;58088;51.186;17.130;2024-01-25T05:07:47;8.91;64.10
70534;SHT31;58088;51.186;17.130;2024-01-25T05:10:13;8.88;64.04
70534;SHT31;58088;51.186;17.130;2024-01-25T05:12:39;8.89;64.04
70534;SHT31;58088;51.186;17.130;2024-01-25T05:15:05;8.92;63.94
70534;SHT31;58088;51.186;17.130;2024-01-25T05:17:33;8.93;63.89
70534;SHT31;58088;51.186;17.130;2024-01-25T05:19:59;8.98;63.78
70534;SHT31;58088;51.186;17.130;2024-01-25T05:22:25;8.98;63.69
70534;SHT31;58088;51.186;17.130;2024-01-25T05:24:51;8.95;63.69
70534;SHT31;58088;51.186;17.130;2024-01-25T05:27:18;8.99;63.66
70534;SHT31;58088;51.186;17.130;2024-01-25T05:29:44;9.01;63.56
70534;SHT31;58088;51.186;17.130;2024-01-25T05:32:10;9.01;63.48
70534;SHT31;58088;51.186;17.130;2024-01-25T05:34:36;9.03;63.41
70534;SHT31;58088;51.186;17.130;2024-01-25T05:37:02;9.05;63.34
70534;SHT31;58088;51.186;17.130;2024-01-25T05:39:28;9.06;63.25
70534;SHT31;58088;51.186;17.130;2024-01-25T05:41:55;9.07;63.16
70534;SHT31;58088;51.186;17.130;2024-01-25T05:44:21;9.08;63.00
70534;SHT31;58088;51.186;17.130;2024-01-25T05:46:47;9.04;62.83
70534;SHT31;58088;51.186;17.130;2024-01-25T05:49:14;9.04;62.74
70534;SHT31;58088;51.186;17.130;2024-01-25T05:51:40;9.08;62.57
70534;SHT31;58088;51.186;17.130;2024-01-25T05:54:06;9.09;62.38
70534;SHT31;58088;51.186;17.130;2024-01-25T05:56:32;9.13;62.40
70534;SHT31;58088;51.186;17.130;2024-01-25T05:58:58;9.13;62.13
70534;SHT31;58088;51.186;17.130;2024-01-25T06:01:24;9.11;61.96
70534;SHT31;58088;51.186;17.130;2024-01-25T06:03:50;9.10;61.80
70534;SHT31;58088;51.186;17.130;2024-01-25T06:06:16;9.16;61.68
70534;SHT31;58088;51.186;17.130;2024-01-25T06:08:43;9.17;61.55
70534;SHT31;58088;51.186;17.130;2024-01-25T06:11:09;9.17;61.53
70534;SHT31;58088;51.186;17.130;2024-01-25T06:13:35;9.21;61.57
70534;SHT31;58088;51.186;17.130;2024-01-25T06:16:01;9.20;61.52
70534;SHT31;58088;51.186;17.130;2024-01-25T06:18:27;9.18;61.51
70534;SHT31;58088;51.186;17.130;2024-01-25T06:20:53;9.17;61.82
70534;SHT31;58088;51.186;17.130;2024-01-25T06:23:20;9.20;61.88
70534;SHT31;58088;51.186;17.130;2024-01-25T06:25:46;9.22;61.93
70534;SHT31;58088;51.186;17.130;2024-01-25T06:28:12;9.17;62.12
70534;SHT31;58088;51.186;17.130;2024-01-25T06:30:38;9.13;62.43
70534;SHT31;58088;51.186;17.130;2024-01-25T06:33:05;9.11;62.68
70534;SHT31;58088;51.186;17.130;2024-01-25T06:35:31;9.12;62.73
70534;SHT31;58088;51.186;17.130;2024-01-25T06:37:57;9.09;62.85
70534;SHT31;58088;51.186;17.130;2024-01-25T06:40:23;9.08;62.89
70534;SHT31;58088;51.186;17.130;2024-01-25T06:42:50;9.08;62.90
70534;SHT31;58088;51.186;17.130;2024-01-25T06:45:16;9.07;62.90
70534;SHT31;58088;51.186;17.130;2024-01-25T06:47:43;9.06;62.87
70534;SHT31;58088;51.186;17.130;2024-01-25T06:50:09;9.07;62.78
70534;SHT31;58088;51.186;17.130;2024-01-25T06:52:35;9.06;62.53
70534;SHT31;58088;51.186;17.130;2024-01-25T06:55:01;9.04;62.39
70534;SHT31;58088;51.186;17.130;2024-01-25T06:57:28;9.07;62.35
70534;SHT31;58088;51.186;17.130;2024-01-25T06:59:54;9.08;62.26
70534;SHT31;58088;51.186;17.130;2024-01-25T07:02:20;9.07;62.22
70534;SHT31;58088;51.186;17.130;2024-01-25T07:04:46;9.09;62.20
70534;SHT31;58088;51.186;17.130;2024-01-25T07:07:12;9.11;62.07
70534;SHT31;58088;51.186;17.130;2024-01-25T07:09:38;9.12;61.78
70534;SHT31;58088;51.186;17.130;2024-01-25T07:12:05;9.12;61.61
70534;SHT31;58088;51.186;17.130;2024-01-25T07:14:31;9.12;61.41
70534;SHT31;58088;51.186;17.130;2024-01-25T07:16:57;9.12;61.39
70534;SHT31;58088;51.186;17.130;2024-01-25T07:19:24;9.14;61.31
70534;SHT31;58088;51.186;17.130;2024-01-25T07:21:50;9.14;61.08
70534;SHT31;58088;51.186;17.130;2024-01-25T07:24:16;9.17;60.98
70534;SHT31;58088;51.186;17.130;2024-01-25T07:26:42;9.19;60.84
70534;SHT31;58088;51.186;17.130;2024-01-25T07:29:08;9.23;60.78
70534;SHT31;58088;51.186;17.130;2024-01-25T07:31:34;9.23;60.56
70534;SHT31;58088;51.186;17.130;2024-01-25T07:34:01;9.25;60.36
70534;SHT31;58088;51.186;17.130;2024-01-25T07:36:27;9.26;60.23
70534;SHT31;58088;51.186;17.130;2024-01-25T07:38:53;9.28;60.08
70534;SHT31;58088;51.186;17.130;2024-01-25T07:41:19;9.29;60.06
70534;SHT31;58088;51.186;17.130;2024-01-25T07:43:45;9.30;59.95
70534;SHT31;58088;51.186;17.130;2024-01-25T07:46:12;9.29;59.73
70534;SHT31;58088;51.186;17.130;2024-01-25T07:48:40;9.30;59.59
70534;SHT31;58088;51.186;17.130;2024-01-25T07:51:12;9.31;59.52
70534;SHT31;58088;51.186;17.130;2024-01-25T07:53:39;9.35;59.66
70534;SHT31;58088;51.186;17.130;2024-01-25T07:56:08;9.37;59.60
70534;SHT31;58088;51.186;17.130;2024-01-25T07:58:35;9.36;59.51
70534;SHT31;58088;51.186;17.130;2024-01-25T08:01:04;9.37;59.45
70534;SHT31;58088;51.186;17.130;2024-01-25T08:03:34;9.37;59.33
70534;SHT31;58088;51.186;17.130;2024-01-25T08:06:01;9.37;59.16
70534;SHT31;58088;51.186;17.130;2024-01-25T08:08:28;9.37;59.12
70534;SHT31;58088;51.186;17.130;2024-01-25T08:10:54;9.35;58.78
70534;SHT31;58088;51.186;17.130;2024-01-25T08:13:20;9.39;58.72
70534;SHT31;58088;51.186;17.130;2024-01-25T08:15:47;9.39;58.64
70534;SHT31;58088;51.186;17.130;2024-01-25T08:18:13;9.44;58.61
70534;SHT31;58088;51.186;17.130;2024-01-25T08:20:39;9.41;58.46
70534;SHT31;58088;51.186;17.130;2024-01-25T08:23:05;9.39;58.39
70534;SHT31;58088;51.186;17.130;2024-01-25T08:25:34;9.39;58.37
70534;SHT31;58088;51.186;17.130;2024-01-25T08:28:00;9.46;58.29
70534;SHT31;58088;51.186;17.130;2024-01-25T08:30:27;9.46;58.37
70534;SHT31;58088;51.186;17.130;2024-01-25T08:32:53;9.43;58.19
70534;SHT31;58088;51.186;17.130;2024-01-25T08:35:19;9.46;58.26
70534;SHT31;58088;51.186;17.130;2024-01-25T08:37:46;9.50;58.28
70534;SHT31;58088;51.186;17.130;2024-01-25T08:40:12;9.50;58.33
70534;SHT31;58088;51.186;17.130;2024-01-25T08:42:38;9.49;58.71
70534;SHT31;58088;51.186;17.130;2024-01-25T08:45:05;9.48;58.72
70534;SHT31;58088;51.186;17.130;2024-01-25T08:47:37;9.56;58.79
70534;SHT31;58088;51.186;17.130;2024-01-25T08:50:03;9.61;58.72
70534;SHT31;58088;51.186;17.130;2024-01-25T08:52:34;9.61;58.55
70534;SHT31;58088;51.186;17.130;2024-01-25T08:55:00;9.58;58.43
70534;SHT31;58088;51.186;17.130;2024-01-25T08:57:26;9.56;58.45
70534;SHT31;58088;51.186;17.130;2024-01-25T08:59:52;9.60;58.52
70534;SHT31;58088;51.186;17.130;2024-01-25T09:02:20;9.62;58.59
70534;SHT31;58088;51.186;17.130;2024-01-25T09:04:52;9.63;58.60
70534;SHT31;58088;51.186;17.130;2024-01-25T09:07:19;9.62;58.41
70534;SHT31;58088;51.186;17.130;2024-01-25T09:09:45;9.63;58.43
70534;SHT31;58088;51.186;17.130;2024-01-25T09:12:11;9.64;58.42
70534;SHT31;58088;51.186;17.130;2024-01-25T09:14:38;9.65;58.36
70534;SHT31;58088;51.186;17.130;2024-01-25T09:17:05;9.60;58.04
70534;SHT31;58088;51.186;17.130;2024-01-25T09:19:31;9.66;58.20
70534;SHT31;58088;51.186;17.130;2024-01-25T09:21:57;9.70;58.17
70534;SHT31;58088;51.186;17.130;2024-01-25T09:24:27;9.73;58.14
70534;SHT31;58088;51.186;17.130;2024-01-25T09:26:53;9.68;57.79
70534;SHT31;58088;51.186;17.130;2024-01-25T09:29:21;9.68;57.76
70534;SHT31;58088;51.186;17.130;2024-01-25T09:31:47;9.71;57.79
70534;SHT31;58088;51.186;17.130;2024-01-25T09:34:13;9.72;57.83
70534;SHT31;58088;51.186;17.130;2024-01-25T09:36:39;9.75;57.80
70534;SHT31;58088;51.186;17.130;2024-01-25T09:39:05;9.82;57.88
70534;SHT31;58088;51.186;17.130;2024-01-25T09:41:32;9.86;57.63
70534;SHT31;58088;51.186;17.130;2024-01-25T09:43:58;9.86;57.44
70534;SHT31;58088;51.186;17.130;2024-01-25T09:46:24;9.95;57.50
70534;SHT31;58088;51.186;17.130;2024-01-25T09:48:52;10.03;57.09
70534;SHT31;58088;51.186;17.130;2024-01-25T09:51:18;10.02;56.99
70534;SHT31;58088;51.186;17.130;2024-01-25T09:53:44;10.06;56.92
70534;SHT31;58088;51.186;17.130;2024-01-25T09:56:15;10.02;56.59
70534;SHT31;58088;51.186;17.130;2024-01-25T09:58:45;10.09;56.68
70534;SHT31;58088;51.186;17.130;2024-01-25T10:01:14;10.15;56.75
70534;SHT31;58088;51.186;17.130;2024-01-25T10:03:45;10.17;56.78
70534;SHT31;58088;51.186;17.130;2024-01-25T10:06:15;10.21;56.78
70534;SHT31;58088;51.186;17.130;2024-01-25T10:08:43;10.22;56.68
70534;SHT31;58088;51.186;17.130;2024-01-25T10:11:10;10.20;56.58
70534;SHT31;58088;51.186;17.130;2024-01-25T10:13:43;10.17;56.65
70534;SHT31;58088;51.186;17.130;2024-01-25T10:16:17;10.19;56.85
70534;SHT31;58088;51.186;17.130;2024-01-25T10:18:47;10.18;56.63
70534;SHT31;58088;51.186;17.130;2024-01-25T10:21:14;10.17;56.76
70534;SHT31;58088;51.186;17.130;2024-01-25T10:23:43;10.16;56.63
70534;SHT31;58088;51.186;17.130;2024-01-25T10:26:15;10.11;56.55
70534;SHT31;58088;51.186;17.130;2024-01-25T10:28:42;10.11;56.47
70534;SHT31;58088;51.186;17.130;2024-01-25T10:31:16;10.10;56.58
70534;SHT31;58088;51.186;17.130;2024-01-25T10:33:42;10.07;56.60
70534;SHT31;58088;51.186;17.130;2024-01-25T10:36:10;10.07;56.83
70534;SHT31;58088;51.186;17.130;2024-01-25T10:38:39;10.06;56.85
70534;SHT31;58088;51.186;17.130;2024-01-25T10:41:10;10.06;56.74
70534;SHT31;58088;51.186;17.130;2024-01-25T10:43:39;10.08;56.60
70534;SHT31;58088;51.186;17.130;2024-01-25T10:46:05;10.04;56.31
70534;SHT31;58088;51.186;17.130;2024-01-25T10:48:34;10.07;56.47
70534;SHT31;58088;51.186;17.130;2024-01-25T10:51:00;10.01;56.51
70534;SHT31;58088;51.186;17.130;2024-01-25T10:53:33;9.97;56.82
70534;SHT31;58088;51.186;17.130;2024-01-25T10:56:01;10.00;56.88
70534;SHT31;58088;51.186;17.130;2024-01-25T10:58:31;10.05;56.71
70534;SHT31;58088;51.186;17.130;2024-01-25T11:00:59;10.07;56.58
70534;SHT31;58088;51.186;17.130;2024-01-25T11:03:26;10.09;56.40
70534;SHT31;58088;51.186;17.130;2024-01-25T11:06:09;10.09;56.29
70534;SHT31;58088;51.186;17.130;2024-01-25T11:08:37;10.10;56.13
70534;SHT31;58088;51.186;17.130;2024-01-25T11:11:11;10.10;56.05
70534;SHT31;58088;51.186;17.130;2024-01-25T11:13:40;10.10;55.76
70534;SHT31;58088;51.186;17.130;2024-01-25T11:16:18;10.14;55.61
70534;SHT31;58088;51.186;17.130;2024-01-25T11:18:56;10.16;55.57
70534;SHT31;58088;51.186;17.130;2024-01-25T11:21:46;10.14;55.46
70534;SHT31;58088;51.186;17.130;2024-01-25T11:24:15;10.18;55.61
70534;SHT31;58088;51.186;17.130;2024-01-25T11:26:46;10.18;55.39
70534;SHT31;58088;51.186;17.130;2024-01-25T11:29:13;10.21;55.37
70534;SHT31;58088;51.186;17.130;2024-01-25T11:31:44;10.20;55.40
70534;SHT31;58088;51.186;17.130;2024-01-25T11:34:12;10.17;55.36
70534;SHT31;58088;51.186;17.130;2024-01-25T11:36:40;10.19;55.47
70534;SHT31;58088;51.186;17.130;2024-01-25T11:39:08;10.20;55.46
70534;SHT31;58088;51.186;17.130;2024-01-25T11:41:36;10.22;55.59
70534;SHT31;58088;51.186;17.130;2024-01-25T11:44:03;10.19;55.69
70534;SHT31;58088;51.186;17.130;2024-01-25T11:46:30;10.20;56.02
70534;SHT31;58088;51.186;17.130;2024-01-25T11:48:59;10.18;56.31
70534;SHT31;58088;51.186;17.130;2024-01-25T11:51:26;10.19;56.62
70534;SHT31;58088;51.186;17.130;2024-01-25T11:53:52;10.12;56.79
70534;SHT31;58088;51.186;17.130;2024-01-25T11:56:22;10.05;57.08
70534;SHT31;58088;51.186;17.130;2024-01-25T11:58:55;10.01;57.41
70534;SHT31;58088;51.186;17.130;2024-01-25T12:01:23;9.97;57.54
70534;SHT31;58088;51.186;17.130;2024-01-25T12:03:51;9.97;57.53
70534;SHT31;58088;51.186;17.130;2024-01-25T12:06:17;10.00;57.53
70534;SHT31;58088;51.186;17.130;2024-01-25T12:08:44;10.05;57.46
70534;SHT31;58088;51.186;17.130;2024-01-25T12:11:14;10.09;57.42
70534;SHT31;58088;51.186;17.130;2024-01-25T12:13:41;10.11;57.29
70534;SHT31;58088;51.186;17.130;2024-01-25T12:16:09;10.13;57.10
70534;SHT31;58088;51.186;17.130;2024-01-25T12:18:38;10.16;56.80
70534;SHT31;58088;51.186;17.130;2024-01-25T12:21:08;10.20;56.41
70534;SHT31;58088;51.186;17.130;2024-01-25T12:23:35;10.19;55.71
70534;SHT31;58088;51.186;17.130;2024-01-25T12:26:04;10.22;55.40
70534;SHT31;58088;51.186;17.130;2024-01-25T12:28:35;10.28;55.44
70534;SHT31;58088;51.186;17.130;2024-01-25T12:31:02;10.35;55.26
70534;SHT31;58088;51.186;17.130;2024-01-25T12:33:31;10.36;54.74
70534;SHT31;58088;51.186;17.130;2024-01-25T12:35:59;10.38;54.59
70534;SHT31;58088;51.186;17.130;2024-01-25T12:38:28;10.40;54.31
70534;SHT31;58088;51.186;17.130;2024-01-25T12:40:56;10.39;54.31
70534;SHT31;58088;51.186;17.130;2024-01-25T12:43:23;10.46;54.29
70534;SHT31;58088;51.186;17.130;2024-01-25T12:45:49;10.54;53.96
70534;SHT31;58088;51.186;17.130;2024-01-25T12:48:17;10.51;53.66
70534;SHT31;58088;51.186;17.130;2024-01-25T12:50:43;10.49;53.64
70534;SHT31;58088;51.186;17.130;2024-01-25T12:53:10;10.52;53.88
70534;SHT31;58088;51.186;17.130;2024-01-25T12:55:37;10.53;53.73
70534;SHT31;58088;51.186;17.130;2024-01-25T12:58:04;10.46;53.54
70534;SHT31;58088;51.186;17.130;2024-01-25T13:00:30;10.44;53.71
70534;SHT31;58088;51.186;17.130;2024-01-25T13:02:57;10.47;53.71
70534;SHT31;58088;51.186;17.130;2024-01-25T13:05:23;10.43;53.49
70534;SHT31;58088;51.186;17.130;2024-01-25T13:07:50;10.42;53.36
70534;SHT31;58088;51.186;17.130;2024-01-25T13:10:16;10.46;53.53
70534;SHT31;58088;51.186;17.130;2024-01-25T13:12:42;10.43;53.19
70534;SHT31;58088;51.186;17.130;2024-01-25T13:15:08;10.38;53.00
70534;SHT31;58088;51.186;17.130;2024-01-25T13:17:35;10.34;52.90
70534;SHT31;58088;51.186;17.130;2024-01-25T13:20:02;10.34;53.06
70534;SHT31;58088;51.186;17.130;2024-01-25T13:22:33;10.33;53.06
70534;SHT31;58088;51.186;17.130;2024-01-25T13:25:00;10.32;53.11
70534;SHT31;58088;51.186;17.130;2024-01-25T13:27:27;10.25;52.97
70534;SHT31;58088;51.186;17.130;2024-01-25T13:29:54;10.27;53.06
70534;SHT31;58088;51.186;17.130;2024-01-25T13:32:22;10.23;53.09
70534;SHT31;58088;51.186;17.130;2024-01-25T13:34:49;10.23;53.15
70534;SHT31;58088;51.186;17.130;2024-01-25T13:37:15;10.25;53.30
70534;SHT31;58088;51.186;17.130;2024-01-25T13:39:41;10.20;53.01
70534;SHT31;58088;51.186;17.130;2024-01-25T13:42:08;10.14;52.94
70534;SHT31;58088;51.186;17.130;2024-01-25T13:44:34;10.16;53.06
70534;SHT31;58088;51.186;17.130;2024-01-25T13:47:00;10.13;53.10
70534;SHT31;58088;51.186;17.130;2024-01-25T13:49:27;10.12;53.23
70534;SHT31;58088;51.186;17.130;2024-01-25T13:51:53;10.06;53.12
70534;SHT31;58088;51.186;17.130;2024-01-25T13:54:20;10.06;53.31
70534;SHT31;58088;51.186;17.130;2024-01-25T13:56:46;10.04;53.33
70534;SHT31;58088;51.186;17.130;2024-01-25T13:59:12;10.04;53.42
70534;SHT31;58088;51.186;17.130;2024-01-25T14:01:38;10.03;53.46
70534;SHT31;58088;51.186;17.130;2024-01-25T14:04:04;10.06;53.54
70534;SHT31;58088;51.186;17.130;2024-01-25T14:06:31;10.04;53.53
70534;SHT31;58088;51.186;17.130;2024-01-25T14:08:57;10.01;53.56
70534;SHT31;58088;51.186;17.130;2024-01-25T14:11:24;9.96;53.68
70534;SHT31;58088;51.186;17.130;2024-01-25T14:13:52;9.90;53.77
70534;SHT31;58088;51.186;17.130;2024-01-25T14:16:18;9.91;53.82
70534;SHT31;58088;51.186;17.130;2024-01-25T14:18:44;9.97;53.97
70534;SHT31;58088;51.186;17.130;2024-01-25T14:21:10;9.98;54.02
70534;SHT31;58088;51.186;17.130;2024-01-25T14:23:36;9.96;54.03
70534;SHT31;58088;51.186;17.130;2024-01-25T14:26:03;9.92;54.09
70534;SHT31;58088;51.186;17.130;2024-01-25T14:28:29;9.95;54.18
70534;SHT31;58088;51.186;17.130;2024-01-25T14:30:56;9.93;53.97
70534;SHT31;58088;51.186;17.130;2024-01-25T14:33:23;9.91;53.92
70534;SHT31;58088;51.186;17.130;2024-01-25T14:35:49;9.88;53.94
70534;SHT31;58088;51.186;17.130;2024-01-25T14:38:15;9.81;54.03
70534;SHT31;58088;51.186;17.130;2024-01-25T14:40:41;9.80;53.94
70534;SHT31;58088;51.186;17.130;2024-01-25T14:43:07;9.81;54.18
70534;SHT31;58088;51.186;17.130;2024-01-25T14:45:34;9.78;54.15
70534;SHT31;58088;51.186;17.130;2024-01-25T14:48:01;9.78;53.99
70534;SHT31;58088;51.186;17.130;2024-01-25T14:50:28;9.71;54.08
70534;SHT31;58088;51.186;17.130;2024-01-25T14:52:54;9.73;54.24
70534;SHT31;58088;51.186;17.130;2024-01-25T14:55:20;9.77;54.28
70534;SHT31;58088;51.186;17.130;2024-01-25T14:57:46;9.73;54.14
70534;SHT31;58088;51.186;17.130;2024-01-25T15:00:12;9.64;54.15
70534;SHT31;58088;51.186;17.130;2024-01-25T15:02:45;9.62;54.24
70534;SHT31;58088;51.186;17.130;2024-01-25T15:05:12;9.61;54.16
70534;SHT31;58088;51.186;17.130;2024-01-25T15:07:39;9.57;54.23
70534;SHT31;58088;51.186;17.130;2024-01-25T15:10:07;9.52;54.21
70534;SHT31;58088;51.186;17.130;2024-01-25T15:12:34;9.50;54.22
70534;SHT31;58088;51.186;17.130;2024-01-25T15:15:00;9.51;54.32
70534;SHT31;58088;51.186;17.130;2024-01-25T15:17:26;9.50;54.38
70534;SHT31;58088;51.186;17.130;2024-01-25T15:19:52;9.48;54.30
70534;SHT31;58088;51.186;17.130;2024-01-25T15:22:18;9.44;54.09
70534;SHT31;58088;51.186;17.130;2024-01-25T15:24:46;9.44;54.07
70534;SHT31;58088;51.186;17.130;2024-01-25T15:27:12;9.46;54.15